Time;durP1;ratioP1;P1;durP2;ratioP2;P2;SDS_P1;SDS_P2;PMS_P1;PMS_P2;Temp;Humidity;BMP_temperature;BMP_pressure;BME280_temperature;BME280_humidity;BME280_pressure;Samples;Min_cycle;Max_cycle;Signal;HPM_P1;HPM_P2
2024/01/25 00:00:17;;;;;;;24.40;4.70;;;;;7.10;95107.00;;;;7404095;19;20164;-83
2024/01/25 00:02:52;;;;;;;23.70;4.40;;;;;7.00;95109.00;;;;7404848;19;20203;-84
2024/01/25 00:05:19;;;;;;;19.43;4.70;;;;;7.10;95111.00;;;;7405648;19;20164;-83
2024/01/25 00:07:48;;;;;;;27.83;4.30;;;;;7.00;95122.00;;;;7406744;19;20180;-84
2024/01/25 00:10:23;;;;;;;25.37;4.63;;;;;7.00;95092.00;;;;7406928;19;20393;-83
2024/01/25 00:12:51;;;;;;;23.30;4.17;;;;;7.20;95109.00;;;;7407618;19;20160;-87
2024/01/25 00:15:26;;;;;;;17.47;4.40;;;;;7.20;95097.00;;;;7410614;19;20188;-84
2024/01/25 00:18:00;;;;;;;22.77;4.30;;;;;6.90;95105.00;;;;7404632;19;20168;-83
2024/01/25 00:20:35;;;;;;;27.03;4.87;;;;;6.90;95120.00;;;;7406575;19;20156;-82
2024/01/25 00:23:03;;;;;;;29.47;5.10;;;;;6.90;95114.00;;;;7401874;19;20144;-86
2024/01/25 00:25:38;;;;;;;27.47;4.47;;;;;6.90;95109.00;;;;7406092;19;20132;-84
2024/01/25 00:28:12;;;;;;;26.67;4.00;;;;;6.80;95106.00;;;;7406663;19;20144;-83
2024/01/25 00:30:47;;;;;;;26.57;4.20;;;;;6.90;95105.00;;;;7404979;19;20147;-83
2024/01/25 00:33:22;;;;;;;23.73;5.20;;;;;7.10;95106.00;;;;7399017;19;20467;-80
2024/01/25 00:35:58;;;;;;;19.73;4.40;;;;;6.90;95124.00;;;;7399597;19;20640;-79
2024/01/25 00:38:34;;;;;;;16.70;4.07;;;;;7.10;95115.00;;;;7396582;19;20144;-79
2024/01/25 00:41:10;;;;;;;21.90;5.07;;;;;7.10;95110.00;;;;7398321;19;20222;-79
2024/01/25 00:43:38;;;;;;;23.90;4.33;;;;;7.00;95117.00;;;;7396397;19;20172;-79
2024/01/25 00:46:06;;;;;;;17.20;3.80;;;;;6.70;95118.00;;;;7398739;19;20624;-78
2024/01/25 00:48:43;;;;;;;21.17;4.27;;;;;6.70;95114.00;;;;7398188;19;20486;-79
2024/01/25 00:51:20;;;;;;;23.40;4.43;;;;;6.60;95119.00;;;;7397392;19;20141;-79
2024/01/25 00:54:01;;;;;;;15.03;4.07;;;;;6.60;95130.00;;;;7396696;19;20141;-77
2024/01/25 00:56:36;;;;;;;27.00;4.93;;;;;6.50;95131.00;;;;7397448;19;20173;-80
2024/01/25 00:59:11;;;;;;;21.07;4.70;;;;;6.60;95124.00;;;;7398184;19;20592;-78
2024/01/25 01:01:52;;;;;;;23.00;4.63;;;;;6.60;95119.00;;;;7396800;19;20154;-79
2024/01/25 01:04:22;;;;;;;20.63;4.17;;;;;6.60;95121.00;;;;7396314;19;20148;-77
2024/01/25 01:06:56;;;;;;;19.17;4.23;;;;;6.60;95126.00;;;;7397436;19;20148;-79
2024/01/25 01:09:24;;;;;;;22.13;4.47;;;;;6.80;95123.00;;;;7396852;19;20148;-79
2024/01/25 01:11:58;;;;;;;22.73;4.37;;;;;6.80;95132.00;;;;7397443;19;20509;-81
2024/01/25 01:14:26;;;;;;;17.80;4.40;;;;;7.00;95138.00;;;;7397633;19;20612;-82
2024/01/25 01:17:01;;;;;;;18.63;4.47;;;;;6.80;95124.00;;;;7396957;19;20162;-79
2024/01/25 01:19:28;;;;;;;25.87;4.37;;;;;6.80;95125.00;;;;7396466;19;20144;-77
2024/01/25 01:22:03;;;;;;;26.10;5.00;;;;;6.90;95126.00;;;;7396146;19;20161;-77
2024/01/25 01:24:37;;;;;;;21.67;3.73;;;;;6.80;95123.00;;;;7396598;19;20624;-78
2024/01/25 01:27:05;;;;;;;19.67;3.93;;;;;6.80;95124.00;;;;7396783;19;20154;-76
2024/01/25 01:29:39;;;;;;;20.43;4.27;;;;;6.80;95122.00;;;;7395650;19;20136;-78
2024/01/25 01:32:06;;;;;;;20.63;4.40;;;;;6.70;95109.00;;;;7396482;19;20494;-81
2024/01/25 01:34:34;;;;;;;15.70;3.97;;;;;6.70;95120.00;;;;7396888;19;20144;-78
2024/01/25 01:37:09;;;;;;;22.00;4.30;;;;;6.70;95109.00;;;;7397763;19;20483;-80
2024/01/25 01:39:44;;;;;;;23.40;4.70;;;;;6.60;95126.00;;;;7396374;19;20141;-78
2024/01/25 01:42:12;;;;;;;18.40;3.63;;;;;6.70;95118.00;;;;7398126;19;20144;-80
2024/01/25 01:44:40;;;;;;;22.90;3.90;;;;;6.80;95112.00;;;;7395368;19;20173;-80
2024/01/25 01:47:15;;;;;;;19.40;4.47;;;;;6.60;95126.00;;;;7396533;19;20144;-80
2024/01/25 01:49:49;;;;;;;19.97;4.07;;;;;6.70;95123.00;;;;7397788;19;20145;-79
2024/01/25 01:52:24;;;;;;;26.27;4.93;;;;;6.60;95125.00;;;;7403421;19;20140;-80
2024/01/25 01:55:05;;;;;;;20.33;4.07;;;;;6.80;95125.00;;;;7404793;19;20169;-80
2024/01/25 01:57:38;;;;;;;28.30;3.90;;;;;6.70;95120.00;;;;7405700;19;20164;-80
2024/01/25 02:00:16;;;;;;;24.60;4.53;;;;;6.80;95123.00;;;;7403053;19;20148;-79
2024/01/25 02:02:51;;;;;;;21.87;4.80;;;;;6.70;95124.00;;;;7403967;19;20172;-81
2024/01/25 02:05:19;;;;;;;21.73;3.90;;;;;6.80;95105.00;;;;7403168;19;20129;-79
2024/01/25 02:07:54;;;;;;;20.90;3.83;;;;;6.70;95128.00;;;;7403431;19;20481;-79
2024/01/25 02:10:28;;;;;;;18.37;3.77;;;;;6.70;95121.00;;;;7401428;19;20196;-79
2024/01/25 02:13:03;;;;;;;16.73;4.00;;;;;6.80;95118.00;;;;7403771;19;20143;-77
2024/01/25 02:15:31;;;;;;;23.73;4.57;;;;;6.70;95111.00;;;;7401672;19;20612;-81
2024/01/25 02:17:59;;;;;;;19.50;4.60;;;;;6.90;95122.00;;;;7402064;19;20159;-77
2024/01/25 02:20:34;;;;;;;19.33;5.03;;;;;6.90;95109.00;;;;7401599;19;20128;-80
2024/01/25 02:23:02;;;;;;;25.90;4.67;;;;;6.60;95116.00;;;;7401942;19;20140;-80
2024/01/25 02:25:30;;;;;;;19.70;3.57;;;;;6.30;95123.00;;;;7403880;19;20150;-81
2024/01/25 02:28:04;;;;;;;26.07;4.43;;;;;6.20;95122.00;;;;7402915;19;20133;-79
2024/01/25 02:30:32;;;;;;;21.47;4.43;;;;;6.10;95121.00;;;;7401851;19;20161;-80
2024/01/25 02:33:07;;;;;;;21.13;4.47;;;;;6.00;95135.00;;;;7403539;19;20132;-81
2024/01/25 02:35:37;;;;;;;27.77;4.57;;;;;5.80;95124.00;;;;7402641;19;20204;-81
2024/01/25 02:38:11;;;;;;;20.53;4.37;;;;;6.00;95121.00;;;;7403006;19;20161;-79
2024/01/25 02:40:39;;;;;;;26.73;5.13;;;;;5.90;95108.00;;;;7403037;19;20605;-81
2024/01/25 02:43:13;;;;;;;20.50;4.20;;;;;5.70;95113.00;;;;7402107;19;20138;-81
2024/01/25 02:45:40;;;;;;;25.47;4.77;;;;;5.90;95098.00;;;;7402914;19;20136;-80
2024/01/25 02:48:15;;;;;;;20.47;4.00;;;;;5.60;95088.00;;;;7403669;19;20173;-77
2024/01/25 02:50:43;;;;;;;23.57;4.40;;;;;5.90;95095.00;;;;7402155;19;20148;-82
2024/01/25 02:53:11;;;;;;;19.70;3.90;;;;;5.60;95104.00;;;;7405556;19;20167;-83
2024/01/25 02:55:45;;;;;;;31.67;4.60;;;;;5.60;95104.00;;;;7406699;19;20150;-84
2024/01/25 02:58:19;;;;;;;30.17;4.53;;;;;5.70;95105.00;;;;7407481;19;20168;-84
2024/01/25 03:00:53;;;;;;;24.53;4.43;;;;;5.40;95090.00;;;;7404992;19;20141;-83
2024/01/25 03:03:23;;;;;;;25.43;4.20;;;;;5.50;95095.00;;;;7404930;19;20155;-84
2024/01/25 03:05:57;;;;;;;23.37;5.17;;;;;5.60;95101.00;;;;7405747;19;20133;-82
2024/01/25 03:08:24;;;;;;;17.67;4.03;;;;;5.50;95099.00;;;;7404587;19;20133;-83
2024/01/25 03:10:59;;;;;;;23.90;4.80;;;;;5.40;95102.00;;;;7401893;19;20208;-82
2024/01/25 03:13:34;;;;;;;23.30;3.70;;;;;5.50;95100.00;;;;7404756;19;20499;-82
2024/01/25 03:16:02;;;;;;;19.03;3.77;;;;;5.60;95092.00;;;;7404186;19;20147;-83
2024/01/25 03:18:36;;;;;;;21.63;4.27;;;;;5.50;95079.00;;;;7404253;19;20250;-83
2024/01/25 03:21:10;;;;;;;25.00;4.20;;;;;5.50;95082.00;;;;7403572;19;20654;-81
2024/01/25 03:23:45;;;;;;;23.33;4.07;;;;;5.40;95096.00;;;;7402100;19;20146;-82
2024/01/25 03:26:19;;;;;;;16.30;3.80;;;;;5.40;95094.00;;;;7402422;19;20470;-81
2024/01/25 03:28:54;;;;;;;26.77;4.53;;;;;5.50;95087.00;;;;7403693;19;20148;-79
2024/01/25 03:31:29;;;;;;;18.60;3.77;;;;;5.40;95087.00;;;;7401564;19;20161;-83
2024/01/25 03:34:03;;;;;;;19.73;3.50;;;;;5.30;95088.00;;;;7403511;19;20149;-83
2024/01/25 03:36:39;;;;;;;23.50;4.37;;;;;5.20;95102.00;;;;7404383;19;20136;-82
2024/01/25 03:39:15;;;;;;;23.57;4.13;;;;;5.40;95106.00;;;;7403154;19;20136;-85
2024/01/25 03:41:43;;;;;;;19.90;3.87;;;;;5.30;95121.00;;;;7404825;19;20144;-84
2024/01/25 03:44:17;;;;;;;27.23;4.47;;;;;5.30;95125.00;;;;7401805;19;20169;-85
2024/01/25 03:46:45;;;;;;;30.03;4.10;;;;;5.30;95119.00;;;;7401201;19;20132;-80
2024/01/25 03:49:19;;;;;;;30.57;4.23;;;;;5.40;95122.00;;;;7401909;19;20600;-81
2024/01/25 03:51:47;;;;;;;22.80;3.70;;;;;5.20;95133.00;;;;7400829;19;20148;-82
2024/01/25 03:54:28;;;;;;;28.30;4.90;;;;;5.30;95133.00;;;;7400053;19;20489;-81
2024/01/25 03:56:56;;;;;;;17.80;5.00;;;;;5.30;95133.00;;;;7402477;19;20141;-81
2024/01/25 03:59:30;;;;;;;25.40;4.37;;;;;5.40;95124.00;;;;7403166;19;20628;-82
2024/01/25 04:02:04;;;;;;;20.03;3.90;;;;;5.40;95122.00;;;;7403111;19;20147;-85
2024/01/25 04:04:38;;;;;;;19.70;4.17;;;;;5.20;95128.00;;;;7402578;19;20148;-84
2024/01/25 04:07:07;;;;;;;24.00;4.10;;;;;5.30;95135.00;;;;7402642;19;20149;-85
2024/01/25 04:09:35;;;;;;;23.07;4.57;;;;;5.20;95139.00;;;;7402344;19;20141;-84
2024/01/25 04:12:11;;;;;;;18.50;4.03;;;;;5.30;95145.00;;;;7401647;19;20169;-83
2024/01/25 04:14:40;;;;;;;22.30;4.60;;;;;5.30;95146.00;;;;7404423;19;20133;-83
2024/01/25 04:17:14;;;;;;;23.03;4.40;;;;;5.30;95149.00;;;;7403111;19;20155;-83
2024/01/25 04:19:44;;;;;;;22.23;4.33;;;;;5.30;95135.00;;;;7403521;19;20141;-83
2024/01/25 04:22:25;;;;;;;26.13;4.73;;;;;5.30;95155.00;;;;7403158;19;20604;-84
2024/01/25 04:24:53;;;;;;;20.33;3.63;;;;;5.20;95171.00;;;;7402740;19;20192;-81
2024/01/25 04:27:27;;;;;;;26.70;4.40;;;;;5.20;95155.00;;;;7401348;19;20144;-81
2024/01/25 04:29:55;;;;;;;16.83;3.80;;;;;5.20;95148.00;;;;7402139;19;20137;-82
2024/01/25 04:32:29;;;;;;;21.93;4.80;;;;;5.10;95157.00;;;;7402883;19;20157;-83
2024/01/25 04:34:57;;;;;;;23.67;5.00;;;;;5.10;95154.00;;;;7400583;19;20585;-82
2024/01/25 04:37:31;;;;;;;19.17;3.80;;;;;5.20;95146.00;;;;7401649;19;20158;-83
2024/01/25 04:40:07;;;;;;;26.87;4.47;;;;;5.10;95153.00;;;;7404165;19;20478;-86
2024/01/25 04:42:37;;;;;;;22.87;4.40;;;;;5.20;95143.00;;;;7402786;19;20153;-85
2024/01/25 04:45:11;;;;;;;28.30;5.10;;;;;5.20;95154.00;;;;7401452;19;20682;-83
2024/01/25 04:47:39;;;;;;;19.37;6.03;;;;;5.20;95151.00;;;;7401245;19;20165;-82
2024/01/25 04:50:14;;;;;;;20.80;4.63;;;;;5.20;95155.00;;;;7402066;19;20132;-83
2024/01/25 04:52:42;;;;;;;27.70;4.40;;;;;5.30;95158.00;;;;7403029;19;20609;-84
2024/01/25 04:55:22;;;;;;;20.53;4.47;;;;;5.40;95152.00;;;;7405296;19;20144;-85
2024/01/25 04:57:53;;;;;;;21.93;4.57;;;;;5.40;95165.00;;;;7407150;19;20203;-85
2024/01/25 05:00:27;;;;;;;25.70;4.80;;;;;5.30;95171.00;;;;7405272;19;20161;-85
2024/01/25 05:02:54;;;;;;;22.77;4.13;;;;;5.50;95177.00;;;;7402497;19;20141;-85
2024/01/25 05:05:22;;;;;;;18.37;3.77;;;;;5.50;95171.00;;;;7403632;19;20152;-84
2024/01/25 05:08:03;;;;;;;18.00;4.20;;;;;5.50;95179.00;;;;7402561;19;20144;-85
2024/01/25 05:10:38;;;;;;;21.53;5.83;;;;;5.50;95186.00;;;;7404185;19;20502;-83
2024/01/25 05:13:13;;;;;;;24.87;4.37;;;;;5.60;95175.00;;;;7402984;19;20169;-81
2024/01/25 05:15:47;;;;;;;27.40;4.57;;;;;5.40;95190.00;;;;7402681;19;20133;-83
2024/01/25 05:18:15;;;;;;;26.07;4.97;;;;;5.50;95188.00;;;;7402148;19;20609;-83
2024/01/25 05:20:43;;;;;;;18.97;4.10;;;;;5.40;95185.00;;;;7403106;19;20129;-83
2024/01/25 05:23:17;;;;;;;20.23;3.90;;;;;5.40;95183.00;;;;7402049;19;20140;-84
2024/01/25 05:25:45;;;;;;;20.03;4.00;;;;;5.50;95178.00;;;;7405830;19;20137;-82
2024/01/25 05:28:19;;;;;;;25.13;4.67;;;;;5.40;95189.00;;;;7407799;19;20140;-84
2024/01/25 05:30:54;;;;;;;18.27;4.10;;;;;5.30;95177.00;;;;7411040;19;20485;-83
2024/01/25 05:33:22;;;;;;;25.80;4.90;;;;;5.30;95184.00;;;;7411415;19;20193;-82
2024/01/25 05:35:56;;;;;;;26.47;4.33;;;;;5.30;95191.00;;;;7407910;19;20616;-83
2024/01/25 05:38:24;;;;;;;25.20;4.27;;;;;5.30;95182.00;;;;7408560;19;20145;-84
2024/01/25 05:40:58;;;;;;;22.10;4.47;;;;;5.10;95194.00;;;;7409577;19;20616;-84
2024/01/25 05:43:33;;;;;;;22.73;4.40;;;;;5.10;95191.00;;;;7406155;19;20192;-84
2024/01/25 05:46:07;;;;;;;23.17;4.20;;;;;5.00;95188.00;;;;7408445;19;20161;-83
2024/01/25 05:48:50;;;;;;;22.43;4.70;;;;;5.00;95183.00;;;;7408377;19;20204;-83
2024/01/25 05:51:31;;;;;;;27.07;4.20;;;;;4.90;95189.00;;;;7406825;19;20149;-84
2024/01/25 05:54:12;;;;;;;26.93;5.60;;;;;4.90;95188.00;;;;7406678;19;20165;-82
2024/01/25 05:56:47;;;;;;;22.77;4.73;;;;;5.00;95191.00;;;;7410737;19;20129;-83
2024/01/25 05:59:14;;;;;;;22.33;4.00;;;;;5.00;95183.00;;;;7408437;19;20144;-86
2024/01/25 06:01:49;;;;;;;27.23;5.20;;;;;5.10;95176.00;;;;7410325;19;20141;-83
2024/01/25 06:04:23;;;;;;;26.00;4.77;;;;;5.10;95179.00;;;;7408492;19;20147;-84
2024/01/25 06:06:57;;;;;;;20.67;4.43;;;;;5.20;95180.00;;;;7411953;19;20163;-83
2024/01/25 06:09:31;;;;;;;23.17;4.77;;;;;5.10;95181.00;;;;7410753;19;20262;-84
2024/01/25 06:11:59;;;;;;;22.97;4.77;;;;;5.00;95181.00;;;;7407356;19;20512;-82
2024/01/25 06:14:34;;;;;;;30.10;5.03;;;;;5.00;95190.00;;;;7410201;19;20168;-84
2024/01/25 06:17:01;;;;;;;21.83;4.13;;;;;5.10;95190.00;;;;7409672;19;20141;-85
2024/01/25 06:19:36;;;;;;;19.20;4.87;;;;;4.90;95196.00;;;;7417035;19;20164;-84
2024/01/25 06:22:04;;;;;;;24.07;4.47;;;;;5.00;95210.00;;;;7411475;19;20135;-84
2024/01/25 06:24:38;;;;;;;26.30;5.37;;;;;5.00;95216.00;;;;7408633;19;20153;-83
2024/01/25 06:27:12;;;;;;;20.73;4.60;;;;;5.00;95220.00;;;;7407565;19;20169;-84
2024/01/25 06:29:39;;;;;;;27.33;4.53;;;;;4.90;95223.00;;;;7410512;19;20497;-83
2024/01/25 06:32:15;;;;;;;20.93;4.30;;;;;4.90;95227.00;;;;7408675;19;20132;-84
2024/01/25 06:34:53;;;;;;;27.83;5.13;;;;;4.80;95222.00;;;;7410093;19;20474;-85
2024/01/25 06:37:27;;;;;;;19.27;4.23;;;;;4.90;95220.00;;;;7404612;19;20149;-84
2024/01/25 06:39:55;;;;;;;23.57;4.63;;;;;4.90;95226.00;;;;7407653;19;20141;-85
2024/01/25 06:42:29;;;;;;;16.97;4.00;;;;;4.80;95221.00;;;;7407165;19;20493;-85
2024/01/25 06:45:03;;;;;;;25.40;4.40;;;;;4.80;95225.00;;;;7411764;19;20129;-84
2024/01/25 06:47:38;;;;;;;24.07;4.27;;;;;4.50;95221.00;;;;7409929;19;20141;-83
2024/01/25 06:50:06;;;;;;;23.83;4.90;;;;;4.60;95231.00;;;;7410167;19;20151;-83
2024/01/25 06:52:40;;;;;;;24.47;4.53;;;;;4.70;95225.00;;;;7407396;19;20550;-86
2024/01/25 06:55:21;;;;;;;22.00;4.87;;;;;4.60;95227.00;;;;7405400;19;20235;-83
2024/01/25 06:57:56;;;;;;;28.30;5.00;;;;;4.50;95222.00;;;;7409496;19;20264;-83
2024/01/25 07:00:32;;;;;;;21.90;4.67;;;;;4.40;95220.00;;;;7406944;19;20141;-85
2024/01/25 07:03:00;;;;;;;30.77;4.83;;;;;4.30;95213.00;;;;7405382;19;20145;-84
2024/01/25 07:05:35;;;;;;;25.27;4.90;;;;;4.30;95220.00;;;;7404688;19;20612;-85
2024/01/25 07:08:13;;;;;;;23.87;4.50;;;;;4.20;95231.00;;;;7406307;19;20152;-83
2024/01/25 07:10:47;;;;;;;23.77;4.93;;;;;4.20;95231.00;;;;7408743;19;20181;-84
2024/01/25 07:13:22;;;;;;;23.43;4.47;;;;;4.30;95233.00;;;;7409332;19;20144;-84
2024/01/25 07:15:50;;;;;;;27.43;5.40;;;;;4.40;95229.00;;;;7409510;19;20145;-83
2024/01/25 07:18:24;;;;;;;27.73;5.37;;;;;4.40;95226.00;;;;7410006;19;20501;-84
2024/01/25 07:20:59;;;;;;;28.90;6.30;;;;;4.50;95212.00;;;;7408036;19;20145;-83
2024/01/25 07:23:35;;;;;;;25.73;5.37;;;;;4.60;95209.00;;;;7408700;19;20146;-85
2024/01/25 07:26:16;;;;;;;18.73;4.73;;;;;4.50;95216.00;;;;7406317;19;20181;-84
2024/01/25 07:28:44;;;;;;;26.70;4.83;;;;;4.40;95215.00;;;;7406798;19;20130;-84
2024/01/25 07:31:18;;;;;;;32.57;5.17;;;;;4.60;95217.00;;;;7405410;19;20148;-84
2024/01/25 07:33:45;;;;;;;21.20;4.83;;;;;4.50;95215.00;;;;7404078;19;20140;-83
2024/01/25 07:36:20;;;;;;;27.20;5.50;;;;;4.50;95226.00;;;;7407297;19;20140;-84
2024/01/25 07:38:51;;;;;;;27.27;5.07;;;;;4.70;95224.00;;;;7405514;19;20141;-85
2024/01/25 07:41:25;;;;;;;30.13;4.90;;;;;4.80;95228.00;;;;7406985;19;20150;-83
2024/01/25 07:44:00;;;;;;;23.53;4.80;;;;;5.00;95230.00;;;;7403800;19;20189;-81
2024/01/25 07:46:34;;;;;;;22.90;5.20;;;;;5.20;95251.00;;;;7412704;19;20216;-82
2024/01/25 07:49:01;;;;;;;22.87;4.33;;;;;5.10;95250.00;;;;7411456;19;20148;-81
2024/01/25 07:51:36;;;;;;;31.87;4.77;;;;;5.40;95257.00;;;;7414410;19;20145;-83
2024/01/25 07:54:10;;;;;;;23.33;4.93;;;;;5.80;95260.00;;;;7408065;19;20164;-81
2024/01/25 07:56:51;;;;;;;30.20;5.27;;;;;6.50;95253.00;;;;7408998;19;20473;-82
2024/01/25 07:59:26;;;;;;;23.30;4.60;;;;;6.00;95265.00;;;;7404788;19;20506;-82
2024/01/25 08:02:00;;;;;;;28.47;4.47;;;;;6.20;95226.00;;;;7402919;19;20617;-82
2024/01/25 08:04:34;;;;;;;23.23;4.27;;;;;6.80;95256.00;;;;7401384;19;20131;-81
2024/01/25 08:07:03;;;;;;;26.27;5.13;;;;;6.40;95255.00;;;;7404752;19;20148;-82
2024/01/25 08:09:37;;;;;;;22.00;4.13;;;;;6.20;95261.00;;;;7401630;19;20148;-82
2024/01/25 08:12:07;;;;;;;28.07;4.33;;;;;6.50;95255.00;;;;7401142;19;20615;-80
2024/01/25 08:14:42;;;;;;;20.17;4.83;;;;;6.20;95249.00;;;;7402437;19;20196;-82
2024/01/25 08:17:10;;;;;;;27.90;4.80;;;;;6.20;95238.00;;;;7401098;19;20220;-83
2024/01/25 08:19:46;;;;;;;24.87;4.17;;;;;6.80;95230.00;;;;7402292;19;20612;-82
2024/01/25 08:22:20;;;;;;;22.63;4.60;;;;;6.80;95233.00;;;;7400382;19;20485;-81
2024/01/25 08:24:54;;;;;;;17.93;4.10;;;;;6.70;95206.00;;;;7403780;19;20247;-80
2024/01/25 08:27:28;;;;;;;16.97;4.20;;;;;6.50;95228.00;;;;7401113;19;20144;-81
2024/01/25 08:30:03;;;;;;;18.90;3.70;;;;;7.00;95243.00;;;;7399580;19;20144;-83
2024/01/25 08:32:38;;;;;;;21.70;3.70;;;;;6.90;95204.00;;;;7400944;19;20140;-82
2024/01/25 08:35:06;;;;;;;21.23;4.10;;;;;7.10;95234.00;;;;7400627;19;20694;-80
2024/01/25 08:37:40;;;;;;;20.33;4.07;;;;;7.90;95182.00;;;;7402584;19;20636;-81
2024/01/25 08:40:09;;;;;;;19.40;4.27;;;;;9.00;95214.00;;;;7400344;19;20161;-80
2024/01/25 08:42:44;;;;;;;24.57;3.70;;;;;8.40;95203.00;;;;7398805;19;20608;-80
2024/01/25 08:45:13;;;;;;;16.73;4.00;;;;;8.70;95188.00;;;;7400730;19;20133;-81
2024/01/25 08:47:49;;;;;;;18.75;4.28;;;;;9.50;95214.00;;;;7398756;19;20176;-81
2024/01/25 08:50:16;;;;;;;14.23;4.00;;;;;8.90;95175.00;;;;7397579;19;20608;-81
2024/01/25 08:52:45;;;;;;;18.17;3.67;;;;;9.70;95169.00;;;;7402325;19;20144;-81
2024/01/25 08:55:32;;;;;;;24.55;5.57;;;;;10.30;95170.00;;;;7398210;19;20156;-81
2024/01/25 08:58:07;;;;;;;20.25;4.72;;;;;9.80;95177.00;;;;7401919;19;20129;-81
2024/01/25 09:00:42;;;;;;;27.75;4.50;;;;;10.60;95180.00;;;;7402624;19;20202;-82
2024/01/25 09:03:18;;;;;;;22.90;4.28;;;;;10.70;95180.00;;;;7408301;19;20125;-81
2024/01/25 09:05:45;;;;;;;15.85;3.72;;;;;9.80;95177.00;;;;7404567;19;20638;-81
2024/01/25 09:08:20;;;;;;;17.90;3.83;;;;;10.20;95185.00;;;;7405809;19;20506;-81
2024/01/25 09:10:48;;;;;;;17.88;3.72;;;;;8.90;95203.00;;;;7407288;19;20145;-83
2024/01/25 09:13:25;;;;;;;14.10;3.70;;;;;9.70;95190.00;;;;7406613;19;20133;-85
2024/01/25 09:15:53;;;;;;;16.35;4.57;;;;;10.00;95212.00;;;;7407004;19;20137;-82
2024/01/25 09:18:20;;;;;;;17.27;3.78;;;;;10.20;95194.00;;;;7405906;19;20124;-82
2024/01/25 09:20:55;;;;;;;17.10;3.88;;;;;11.10;95211.00;;;;7405248;19;20881;-83
2024/01/25 09:23:23;;;;;;;18.40;3.90;;;;;11.10;95217.00;;;;7405422;19;20149;-82
2024/01/25 09:25:57;;;;;;;16.73;3.85;;;;;9.00;95244.00;;;;7405388;19;20632;-85
2024/01/25 09:28:24;;;;;;;12.45;3.53;;;;;8.60;95214.00;;;;7408324;19;20170;-83
2024/01/25 09:30:59;;;;;;;20.40;3.63;;;;;10.20;95218.00;;;;7409795;19;20156;-82
2024/01/25 09:33:27;;;;;;;14.73;3.17;;;;;10.70;95227.00;;;;7406687;19;20166;-81
2024/01/25 09:36:03;;;;;;;20.85;4.20;;;;;11.80;95228.00;;;;7409998;19;20132;-83
2024/01/25 09:38:31;;;;;;;17.85;4.05;;;;;11.40;95238.00;;;;7407098;19;20619;-84
2024/01/25 09:41:05;;;;;;;16.10;3.28;;;;;10.20;95241.00;;;;7407176;19;20137;-82
2024/01/25 09:43:33;;;;;;;13.98;2.97;;;;;10.70;95230.00;;;;7407501;19;20648;-81
2024/01/25 09:46:09;;;;;;;15.15;3.53;;;;;10.40;95257.00;;;;7405919;19;20161;-80
2024/01/25 09:48:36;;;;;;;17.17;3.90;;;;;10.80;95241.00;;;;7405563;19;20616;-83
2024/01/25 09:51:12;;;;;;;10.77;2.75;;;;;9.70;95269.00;;;;7405417;19;20144;-84
2024/01/25 09:53:41;;;;;;;21.35;3.70;;;;;9.40;95271.00;;;;7403698;19;20663;-87
2024/01/25 09:56:19;;;;;;;15.82;3.33;;;;;8.80;95247.00;;;;7404807;19;20148;-84
2024/01/25 09:58:57;;;;;;;13.07;3.50;;;;;9.70;95257.00;;;;7406491;19;20132;-83
2024/01/25 10:01:31;;;;;;;11.02;2.92;;;;;10.00;95274.00;;;;7405112;19;20640;-84
2024/01/25 10:03:59;;;;;;;14.73;2.90;;;;;8.90;95280.00;;;;7403270;19;20608;-84
2024/01/25 10:06:34;;;;;;;17.45;3.92;;;;;8.90;95286.00;;;;7405842;19;20205;-84
2024/01/25 10:09:09;;;;;;;20.40;3.47;;;;;8.60;95275.00;;;;7406854;19;20149;-84
2024/01/25 10:11:44;;;;;;;13.30;3.78;;;;;10.20;95263.00;;;;7405411;19;20133;-85
2024/01/25 10:14:36;;;;;;;15.38;3.20;;;;;11.60;95260.00;;;;7404701;19;20215;-84
2024/01/25 10:17:04;;;;;;;13.13;2.80;;;;;10.90;95265.00;;;;7403749;19;20600;-82
2024/01/25 10:19:42;;;;;;;16.42;3.72;;;;;10.90;95249.00;;;;7405096;19;20164;-84
2024/01/25 10:22:16;;;;;;;16.65;3.17;;;;;12.40;95254.00;;;;7406471;19;20128;-82
2024/01/25 10:24:44;;;;;;;13.77;3.30;;;;;11.20;95252.00;;;;7403185;19;20205;-83
2024/01/25 10:27:12;;;;;;;13.90;3.08;;;;;12.50;95251.00;;;;7406706;19;20543;-81
2024/01/25 10:29:47;;;;;;;13.18;2.92;;;;;12.80;95251.00;;;;7405197;19;20151;-82
2024/01/25 10:32:15;;;;;;;10.75;3.15;;;;;13.90;95255.00;;;;7404799;19;20151;-83
2024/01/25 10:34:47;;;;;;;13.85;3.33;;;;;13.40;95253.00;;;;7403035;19;20601;-82
2024/01/25 10:37:22;;;;;;;12.43;3.20;;;;;13.20;95248.00;;;;7403734;19;20140;-82
2024/01/25 10:39:57;;;;;;;10.63;3.10;;;;;11.20;95254.00;;;;7406127;19;20174;-83
2024/01/25 10:42:31;;;;;;;12.27;3.20;;;;;12.40;95251.00;;;;7405070;19;20125;-83
2024/01/25 10:44:59;;;;;;;10.18;3.20;;;;;12.90;95246.00;;;;7403596;19;20152;-80
2024/01/25 10:47:35;;;;;;;10.60;2.72;;;;;11.80;95242.00;;;;7406576;19;20137;-82
2024/01/25 10:50:04;;;;;;;9.07;2.72;;;;;13.40;95235.00;;;;7403492;19;20141;-82
2024/01/25 10:52:41;;;;;;;12.60;3.13;;;;;13.30;95229.00;;;;7402213;19;20655;-84
2024/01/25 10:55:22;;;;;;;11.60;2.90;;;;;11.10;95239.00;;;;7402023;19;20168;-82
2024/01/25 10:57:56;;;;;;;10.65;2.70;;;;;12.80;95245.00;;;;7403604;19;20585;-83
2024/01/25 11:00:33;;;;;;;11.77;3.22;;;;;11.80;95242.00;;;;7402494;19;20157;-82
2024/01/25 11:03:07;;;;;;;10.50;3.15;;;;;12.30;95257.00;;;;7402163;19;20222;-78
2024/01/25 11:05:35;;;;;;;14.40;3.05;;;;;11.30;95246.00;;;;7401283;19;20231;-76
2024/01/25 11:08:04;;;;;;;11.23;3.30;;;;;12.90;95234.00;;;;7402004;19;20148;-77
2024/01/25 11:10:38;;;;;;;12.50;3.20;;;;;12.90;95231.00;;;;7400929;19;20617;-77
2024/01/25 11:13:15;;;;;;;8.52;2.60;;;;;12.50;95237.00;;;;7399937;19;20613;-77
2024/01/25 11:15:43;;;;;;;17.48;2.88;;;;;13.00;95238.00;;;;7400221;19;20609;-77
2024/01/25 11:18:17;;;;;;;13.40;3.03;;;;;12.50;95219.00;;;;7400574;19;20144;-78
2024/01/25 11:20:48;;;;;;;11.68;2.30;;;;;13.00;95225.00;;;;7400147;19;20145;-81
2024/01/25 11:23:31;;;;;;;10.57;2.67;;;;;13.70;95223.00;;;;7398869;19;20673;-78
2024/01/25 11:25:59;;;;;;;8.80;3.08;;;;;13.90;95211.00;;;;7400675;19;20151;-79
2024/01/25 11:28:33;;;;;;;10.68;2.50;;;;;13.00;95209.00;;;;7400710;19;20624;-76
2024/01/25 11:31:02;;;;;;;10.73;2.30;;;;;13.20;95203.00;;;;7401796;19;20599;-78
2024/01/25 11:33:37;;;;;;;10.73;2.67;;;;;13.60;95189.00;;;;7397741;19;20168;-76
2024/01/25 11:36:06;;;;;;;12.40;2.97;;;;;13.80;95201.00;;;;7400191;19;20608;-76
2024/01/25 11:38:41;;;;;;;8.40;2.60;;;;;13.10;95194.00;;;;7400464;19;20628;-80
2024/01/25 11:41:08;;;;;;;10.18;2.67;;;;;12.30;95189.00;;;;7399720;19;20148;-77
2024/01/25 11:43:43;;;;;;;8.65;2.20;;;;;11.90;95191.00;;;;7401063;19;20167;-77
2024/01/25 11:46:17;;;;;;;9.05;3.00;;;;;13.30;95187.00;;;;7399260;19;20145;-76
2024/01/25 11:48:45;;;;;;;9.25;2.13;;;;;13.40;95197.00;;;;7400132;19;20172;-77
2024/01/25 11:51:20;;;;;;;11.75;2.50;;;;;13.90;95192.00;;;;7400522;19;20515;-78
2024/01/25 11:54:00;;;;;;;5.82;1.95;;;;;12.60;95187.00;;;;7398327;19;20168;-76
2024/01/25 11:56:39;;;;;;;8.80;2.13;;;;;13.80;95183.00;;;;7398785;19;20514;-77
2024/01/25 11:59:13;;;;;;;10.35;2.15;;;;;12.90;95181.00;;;;7402036;19;20625;-77
2024/01/25 12:01:41;;;;;;;8.95;2.20;;;;;12.90;95181.00;;;;7400273;19;20657;-77
2024/01/25 12:04:10;;;;;;;9.43;2.05;;;;;13.90;95178.00;;;;7398732;19;20133;-77
2024/01/25 12:06:44;;;;;;;6.47;1.92;;;;;14.70;95171.00;;;;7398869;19;20152;-75
2024/01/25 12:09:18;;;;;;;10.60;2.38;;;;;15.80;95165.00;;;;7398447;19;20604;-78
2024/01/25 12:11:52;;;;;;;6.60;1.80;;;;;14.80;95184.00;;;;7397893;19;20153;-76
2024/01/25 12:14:27;;;;;;;9.75;2.20;;;;;15.40;95176.00;;;;7399566;19;20507;-79
2024/01/25 12:16:58;;;;;;;8.30;2.42;;;;;15.00;95168.00;;;;7402548;19;20151;-79
2024/01/25 12:19:32;;;;;;;7.18;1.75;;;;;13.80;95162.00;;;;7400926;19;20145;-78
2024/01/25 12:22:07;;;;;;;4.65;1.38;;;;;14.70;95154.00;;;;7401644;19;20185;-81
2024/01/25 12:24:43;;;;;;;6.65;2.08;;;;;15.30;95151.00;;;;7400339;19;20148;-80
2024/01/25 12:27:27;;;;;;;8.25;2.00;;;;;15.60;95148.00;;;;7401823;19;20169;-79
2024/01/25 12:29:55;;;;;;;9.35;2.05;;;;;15.90;95157.00;;;;7399552;19;20145;-80
2024/01/25 12:32:29;;;;;;;8.00;1.90;;;;;15.20;95150.00;;;;7399625;19;20144;-78
2024/01/25 12:35:04;;;;;;;6.93;1.98;;;;;15.60;95146.00;;;;7399369;19;20140;-79
2024/01/25 12:37:35;;;;;;;6.20;1.88;;;;;13.80;95147.00;;;;7401527;19;20163;-79
2024/01/25 12:40:09;;;;;;;8.73;2.50;;;;;14.60;95151.00;;;;7400313;19;20591;-80
2024/01/25 12:42:43;;;;;;;8.30;2.15;;;;;15.60;95139.00;;;;7399739;19;20481;-77